PWSweather.com
Personal Weather Stations
Station Observations
WD4JKH
Forsyth, GA 31029

Forsyth, GA 31029

Lat: 33.033225, Lon: -83.927995

Elevation: 709

Station Type: Davis Vantage VUE

High Low Average
Temperature 47.6°F8.7°C 38.0°F3.3°C 43.1°F6.2°C
Dew Point 41.2°F5.1°C 25.6°F-3.6°C 34.6°F1.4°C
Winds 3.0 mph 4.8 kmh Calm Calm Calm SSWCalm SSW
Wind Gusts 7.0 mph11.3 kmh -- 2.0 mph3.2 kmh
Humidity 91% 55% 72%
Pressure 30.50 in1032.8 mb 30.39 in1029.1 mb -
Precipitation 0.01 in0.3 mm - -
Hour Temp Dew Point Humidity Winds Wind Gusts Pressure Precip Precip Rate Daily Precip Total
12:02 AM 39.7°F4.3°C 27.8°F-2.3°C 62% Calm Calm 3.0 mph4.8 kmh 30.40 in1029.5 mb 0.00 in0.0 mm 0.00 in0.0 mm 0.00 in0.0 mm
12:07 AM 39.4°F4.1°C 27.5°F-2.5°C 62% Calm Calm 3.0 mph4.8 kmh 30.40 in1029.5 mb 0.00 in0.0 mm 0.00 in0.0 mm 0.00 in0.0 mm
12:12 AM 39.4°F4.1°C 27.8°F-2.3°C 63% 1.5 mph SW2.4 kmh SW 3.0 mph4.8 kmh 30.39 in1029.1 mb 0.00 in0.0 mm 0.00 in0.0 mm 0.00 in0.0 mm
12:17 AM 39.4°F4.1°C 27.1°F-2.7°C 61% 1.7 mph SW2.7 kmh SW 3.0 mph4.8 kmh 30.39 in1029.1 mb 0.00 in0.0 mm 0.00 in0.0 mm 0.00 in0.0 mm
12:22 AM 39.6°F4.2°C 27.3°F-2.6°C 61% 1.0 mph WSW1.6 kmh WSW 3.0 mph4.8 kmh 30.40 in1029.5 mb 0.00 in0.0 mm 0.00 in0.0 mm 0.00 in0.0 mm
12:27 AM 39.4°F4.1°C 27.1°F-2.7°C 61% Calm Calm 3.0 mph4.8 kmh 30.40 in1029.5 mb 0.00 in0.0 mm 0.00 in0.0 mm 0.00 in0.0 mm
12:32 AM 39.1°F3.9°C 27.2°F-2.7°C 62% 1.5 mph WSW2.4 kmh WSW 3.0 mph4.8 kmh 30.40 in1029.5 mb 0.00 in0.0 mm 0.00 in0.0 mm 0.00 in0.0 mm
12:36 AM 39.0°F3.9°C 27.2°F-2.7°C 62% Calm Calm 2.0 mph3.2 kmh 30.40 in1029.5 mb 0.00 in0.0 mm 0.00 in0.0 mm 0.00 in0.0 mm
12:41 AM 39.1°F3.9°C 27.6°F-2.4°C 63% 1.0 mph W1.6 kmh W 2.0 mph3.2 kmh 30.41 in1029.8 mb 0.00 in0.0 mm 0.00 in0.0 mm 0.00 in0.0 mm
12:46 AM 38.9°F3.8°C 27.4°F-2.6°C 63% 1.0 mph W1.6 kmh W 2.0 mph3.2 kmh 30.40 in1029.5 mb 0.00 in0.0 mm 0.00 in0.0 mm 0.00 in0.0 mm
12:51 AM 39.1°F3.9°C 27.2°F-2.7°C 62% Calm Calm 1.0 mph1.6 kmh 30.41 in1029.8 mb 0.00 in0.0 mm 0.00 in0.0 mm 0.00 in0.0 mm
12:56 AM 39.4°F4.1°C 27.1°F-2.7°C 61% Calm Calm 1.0 mph1.6 kmh 30.41 in1029.8 mb 0.00 in0.0 mm 0.00 in0.0 mm 0.00 in0.0 mm
01:01 AM 39.4°F4.1°C 27.1°F-2.7°C 61% Calm Calm 1.0 mph1.6 kmh 30.41 in1029.8 mb 0.00 in0.0 mm 0.00 in0.0 mm 0.00 in0.0 mm
01:06 AM 39.7°F4.3°C 26.6°F-3.0°C 59% Calm Calm 1.0 mph1.6 kmh 30.40 in1029.5 mb 0.00 in0.0 mm 0.00 in0.0 mm 0.00 in0.0 mm
01:11 AM 40.3°F4.6°C 26.3°F-3.2°C 57% Calm Calm 1.0 mph1.6 kmh 30.39 in1029.1 mb 0.00 in0.0 mm 0.00 in0.0 mm 0.00 in0.0 mm
01:16 AM 40.4°F4.7°C 26.0°F-3.3°C 56% Calm Calm 1.0 mph1.6 kmh 30.40 in1029.5 mb 0.00 in0.0 mm 0.00 in0.0 mm 0.00 in0.0 mm
01:21 AM 40.5°F4.7°C 26.1°F-3.3°C 56% Calm Calm 1.0 mph1.6 kmh 30.40 in1029.5 mb 0.00 in0.0 mm 0.00 in0.0 mm 0.00 in0.0 mm
01:26 AM 40.4°F4.7°C 26.0°F-3.3°C 56% Calm Calm 1.0 mph1.6 kmh 30.40 in1029.5 mb 0.00 in0.0 mm 0.00 in0.0 mm 0.00 in0.0 mm
01:31 AM 40.3°F4.6°C 25.9°F-3.4°C 56% Calm Calm 1.0 mph1.6 kmh 30.39 in1029.1 mb 0.00 in0.0 mm 0.00 in0.0 mm 0.00 in0.0 mm
01:36 AM 40.2°F4.6°C 25.8°F-3.4°C 56% Calm Calm 1.0 mph1.6 kmh 30.39 in1029.1 mb 0.00 in0.0 mm 0.00 in0.0 mm 0.00 in0.0 mm
01:41 AM 40.1°F4.5°C 25.6°F-3.6°C 56% Calm Calm -- 30.39 in1029.1 mb 0.00 in0.0 mm 0.00 in0.0 mm 0.00 in0.0 mm
01:46 AM 40.1°F4.5°C 26.1°F-3.3°C 57% Calm Calm -- 30.40 in1029.5 mb 0.00 in0.0 mm 0.00 in0.0 mm 0.00 in0.0 mm
01:51 AM 39.8°F4.3°C 26.3°F-3.2°C 58% Calm Calm -- 30.40 in1029.5 mb 0.00 in0.0 mm 0.00 in0.0 mm 0.00 in0.0 mm
01:56 AM 39.4°F4.1°C 26.3°F-3.2°C 59% Calm Calm -- 30.40 in1029.5 mb 0.00 in0.0 mm 0.00 in0.0 mm 0.00 in0.0 mm
02:01 AM 39.4°F4.1°C 26.2°F-3.2°C 59% Calm Calm -- 30.40 in1029.5 mb 0.00 in0.0 mm 0.00 in0.0 mm 0.00 in0.0 mm
02:06 AM 39.3°F4.1°C 26.6°F-3.0°C 60% 1.0 mph W1.6 kmh W 1.0 mph1.6 kmh 30.40 in1029.5 mb 0.00 in0.0 mm 0.00 in0.0 mm 0.00 in0.0 mm
02:11 AM 39.1°F3.9°C 27.2°F-2.7°C 62% 1.0 mph W1.6 kmh W 2.0 mph3.2 kmh 30.40 in1029.5 mb 0.00 in0.0 mm 0.00 in0.0 mm 0.00 in0.0 mm
02:16 AM 38.8°F3.8°C 27.0°F-2.8°C 62% 1.0 mph W1.6 kmh W 2.0 mph3.2 kmh 30.40 in1029.5 mb 0.00 in0.0 mm 0.00 in0.0 mm 0.00 in0.0 mm
02:21 AM 38.7°F3.7°C 26.9°F-2.8°C 62% 1.0 mph W1.6 kmh W 2.0 mph3.2 kmh 30.40 in1029.5 mb 0.00 in0.0 mm 0.00 in0.0 mm 0.00 in0.0 mm
02:26 AM 38.7°F3.7°C 26.8°F-2.9°C 62% Calm Calm 2.0 mph3.2 kmh 30.40 in1029.5 mb 0.00 in0.0 mm 0.00 in0.0 mm 0.00 in0.0 mm
02:31 AM 38.7°F3.7°C 27.2°F-2.7°C 63% Calm Calm 1.0 mph1.6 kmh 30.41 in1029.8 mb 0.00 in0.0 mm 0.00 in0.0 mm 0.00 in0.0 mm
02:36 AM 38.3°F3.5°C 27.3°F-2.6°C 64% 1.0 mph W1.6 kmh W 1.0 mph1.6 kmh 30.41 in1029.8 mb 0.00 in0.0 mm 0.00 in0.0 mm 0.00 in0.0 mm
02:41 AM 38.0°F3.3°C 27.4°F-2.6°C 65% Calm Calm 2.0 mph3.2 kmh 30.41 in1029.8 mb 0.00 in0.0 mm 0.00 in0.0 mm 0.00 in0.0 mm
02:46 AM 38.1°F3.4°C 27.4°F-2.6°C 65% Calm Calm 2.0 mph3.2 kmh 30.41 in1029.8 mb 0.00 in0.0 mm 0.00 in0.0 mm 0.00 in0.0 mm
02:51 AM 38.3°F3.5°C 27.6°F-2.4°C 65% 1.7 mph WNW2.7 kmh WNW 2.0 mph3.2 kmh 30.40 in1029.5 mb 0.00 in0.0 mm 0.00 in0.0 mm 0.00 in0.0 mm
02:56 AM 38.6°F3.7°C 27.1°F-2.7°C 63% 1.5 mph WNW2.4 kmh WNW 2.0 mph3.2 kmh 30.41 in1029.8 mb 0.00 in0.0 mm 0.00 in0.0 mm 0.00 in0.0 mm
03:01 AM 39.0°F3.9°C 27.2°F-2.7°C 62% 1.3 mph WNW2.1 kmh WNW 4.0 mph6.4 kmh 30.40 in1029.5 mb 0.00 in0.0 mm 0.00 in0.0 mm 0.00 in0.0 mm
03:06 AM 39.2°F4.0°C 27.3°F-2.6°C 62% 1.4 mph WNW2.3 kmh WNW 4.0 mph6.4 kmh 30.41 in1029.8 mb 0.00 in0.0 mm 0.00 in0.0 mm 0.00 in0.0 mm
03:11 AM 39.2°F4.0°C 26.9°F-2.8°C 61% 1.1 mph WNW1.8 kmh WNW 4.0 mph6.4 kmh 30.41 in1029.8 mb 0.00 in0.0 mm 0.00 in0.0 mm 0.00 in0.0 mm
03:16 AM 39.3°F4.1°C 27.0°F-2.8°C 61% Calm Calm 3.0 mph4.8 kmh 30.41 in1029.8 mb 0.00 in0.0 mm 0.00 in0.0 mm 0.00 in0.0 mm
03:21 AM 39.3°F4.1°C 27.4°F-2.6°C 62% Calm Calm 3.0 mph4.8 kmh 30.40 in1029.5 mb 0.00 in0.0 mm 0.00 in0.0 mm 0.00 in0.0 mm
03:26 AM 39.4°F4.1°C 27.1°F-2.7°C 61% Calm Calm 2.0 mph3.2 kmh 30.40 in1029.5 mb 0.00 in0.0 mm 0.00 in0.0 mm 0.00 in0.0 mm
03:31 AM 39.3°F4.1°C 27.4°F-2.6°C 62% Calm Calm 2.0 mph3.2 kmh 30.40 in1029.5 mb 0.00 in0.0 mm 0.00 in0.0 mm 0.00 in0.0 mm
03:36 AM 39.0°F3.9°C 27.5°F-2.5°C 63% Calm Calm 1.0 mph1.6 kmh 30.41 in1029.8 mb 0.00 in0.0 mm 0.00 in0.0 mm 0.00 in0.0 mm
03:41 AM 38.8°F3.8°C 27.7°F-2.4°C 64% Calm Calm 1.0 mph1.6 kmh 30.40 in1029.5 mb 0.00 in0.0 mm 0.00 in0.0 mm 0.00 in0.0 mm
03:46 AM 38.8°F3.8°C 27.7°F-2.4°C 64% Calm Calm 1.0 mph1.6 kmh 30.40 in1029.5 mb 0.00 in0.0 mm 0.00 in0.0 mm 0.00 in0.0 mm
03:51 AM 38.9°F3.8°C 27.8°F-2.3°C 64% 1.0 mph NW1.6 kmh NW 1.0 mph1.6 kmh 30.41 in1029.8 mb 0.00 in0.0 mm 0.00 in0.0 mm 0.00 in0.0 mm
03:56 AM 39.0°F3.9°C 28.2°F-2.1°C 65% Calm Calm 1.0 mph1.6 kmh 30.41 in1029.8 mb 0.00 in0.0 mm 0.00 in0.0 mm 0.00 in0.0 mm
04:01 AM 39.1°F3.9°C 28.8°F-1.8°C 66% Calm Calm 1.0 mph1.6 kmh 30.40 in1029.5 mb 0.00 in0.0 mm 0.00 in0.0 mm 0.00 in0.0 mm
04:06 AM 39.3°F4.1°C 27.7°F-2.4°C 63% Calm Calm 1.0 mph1.6 kmh 30.39 in1029.1 mb 0.00 in0.0 mm 0.00 in0.0 mm 0.00 in0.0 mm
04:11 AM 39.5°F4.2°C 28.0°F-2.2°C 63% Calm Calm 1.0 mph1.6 kmh 30.40 in1029.5 mb 0.00 in0.0 mm 0.00 in0.0 mm 0.00 in0.0 mm
04:16 AM 39.6°F4.2°C 27.7°F-2.4°C 62% Calm Calm 1.0 mph1.6 kmh 30.40 in1029.5 mb 0.00 in0.0 mm 0.00 in0.0 mm 0.00 in0.0 mm
04:21 AM 39.7°F4.3°C 28.2°F-2.1°C 63% Calm Calm 1.0 mph1.6 kmh 30.40 in1029.5 mb 0.00 in0.0 mm 0.00 in0.0 mm 0.00 in0.0 mm
04:26 AM 39.6°F4.2°C 28.4°F-2.0°C 64% 1.0 mph NW1.6 kmh NW 1.0 mph1.6 kmh 30.41 in1029.8 mb 0.00 in0.0 mm 0.00 in0.0 mm 0.00 in0.0 mm
04:31 AM 39.6°F4.2°C 28.5°F-1.9°C 64% 1.0 mph WNW1.6 kmh WNW 1.0 mph1.6 kmh 30.41 in1029.8 mb 0.00 in0.0 mm 0.00 in0.0 mm 0.00 in0.0 mm
04:36 AM 39.7°F4.3°C 28.6°F-1.9°C 64% 1.5 mph NW2.4 kmh NW 3.0 mph4.8 kmh 30.41 in1029.8 mb 0.00 in0.0 mm 0.00 in0.0 mm 0.00 in0.0 mm
04:41 AM 39.7°F4.3°C 28.2°F-2.1°C 63% 1.0 mph NNW1.6 kmh NNW 3.0 mph4.8 kmh 30.41 in1029.8 mb 0.00 in0.0 mm 0.00 in0.0 mm 0.00 in0.0 mm
04:46 AM 39.7°F4.3°C 28.1°F-2.2°C 63% Calm Calm 3.0 mph4.8 kmh 30.41 in1029.8 mb 0.00 in0.0 mm 0.00 in0.0 mm 0.00 in0.0 mm
04:51 AM 39.7°F4.3°C 28.6°F-1.9°C 64% Calm Calm 3.0 mph4.8 kmh 30.41 in1029.8 mb 0.00 in0.0 mm 0.00 in0.0 mm 0.00 in0.0 mm
04:56 AM 39.7°F4.3°C 29.0°F-1.7°C 65% Calm Calm 2.0 mph3.2 kmh 30.41 in1029.8 mb 0.00 in0.0 mm 0.00 in0.0 mm 0.00 in0.0 mm
05:01 AM 39.8°F4.3°C 29.0°F-1.7°C 65% Calm Calm -- 30.40 in1029.5 mb 0.00 in0.0 mm 0.00 in0.0 mm 0.00 in0.0 mm
05:06 AM 39.8°F4.3°C 29.4°F-1.4°C 66% Calm Calm -- 30.40 in1029.5 mb 0.00 in0.0 mm 0.00 in0.0 mm 0.00 in0.0 mm
05:11 AM 39.7°F4.3°C 29.3°F-1.5°C 66% Calm Calm -- 30.40 in1029.5 mb 0.00 in0.0 mm 0.00 in0.0 mm 0.00 in0.0 mm
05:16 AM 39.7°F4.3°C 29.4°F-1.4°C 66% Calm Calm -- 30.40 in1029.5 mb 0.00 in0.0 mm 0.00 in0.0 mm 0.00 in0.0 mm
05:22 AM 39.9°F4.4°C 29.2°F-1.6°C 65% Calm Calm -- 30.41 in1029.8 mb 0.00 in0.0 mm 0.00 in0.0 mm 0.00 in0.0 mm
05:26 AM 40.0°F4.4°C 28.9°F-1.7°C 64% Calm Calm -- 30.41 in1029.8 mb 0.00 in0.0 mm 0.00 in0.0 mm 0.00 in0.0 mm
05:32 AM 40.2°F4.6°C 29.1°F-1.6°C 64% Calm Calm -- 30.41 in1029.8 mb 0.00 in0.0 mm 0.00 in0.0 mm 0.00 in0.0 mm
05:35 AM 40.4°F4.7°C 29.9°F-1.2°C 66% Calm Calm -- 30.41 in1029.8 mb 0.00 in0.0 mm 0.00 in0.0 mm 0.00 in0.0 mm
05:40 AM 40.4°F4.7°C 29.9°F-1.2°C 66% Calm Calm -- 30.41 in1029.8 mb 0.00 in0.0 mm 0.00 in0.0 mm 0.00 in0.0 mm
05:45 AM 40.4°F4.7°C 30.0°F-1.1°C 66% Calm Calm 1.0 mph1.6 kmh 30.41 in1029.8 mb 0.00 in0.0 mm 0.00 in0.0 mm 0.00 in0.0 mm
05:50 AM 40.3°F4.6°C 29.5°F-1.4°C 65% Calm Calm 1.0 mph1.6 kmh 30.41 in1029.8 mb 0.00 in0.0 mm 0.00 in0.0 mm 0.00 in0.0 mm
05:56 AM 40.2°F4.6°C 29.5°F-1.4°C 65% Calm Calm 1.0 mph1.6 kmh 30.41 in1029.8 mb 0.00 in0.0 mm 0.00 in0.0 mm 0.00 in0.0 mm
06:01 AM 40.2°F4.6°C 29.8°F-1.2°C 66% Calm Calm -- 30.41 in1029.8 mb 0.00 in0.0 mm 0.00 in0.0 mm 0.00 in0.0 mm
06:06 AM 40.3°F4.6°C 29.5°F-1.4°C 65% Calm Calm -- 30.41 in1029.8 mb 0.00 in0.0 mm 0.00 in0.0 mm 0.00 in0.0 mm
06:11 AM 40.3°F4.6°C 29.5°F-1.4°C 65% 1.0 mph W1.6 kmh W 1.0 mph1.6 kmh 30.42 in1030.1 mb 0.00 in0.0 mm 0.00 in0.0 mm 0.00 in0.0 mm
06:16 AM 40.5°F4.7°C 29.7°F-1.3°C 65% Calm Calm 1.0 mph1.6 kmh 30.42 in1030.1 mb 0.00 in0.0 mm 0.00 in0.0 mm 0.00 in0.0 mm
06:21 AM 40.6°F4.8°C 29.8°F-1.2°C 65% Calm Calm 1.0 mph1.6 kmh 30.42 in1030.1 mb 0.00 in0.0 mm 0.00 in0.0 mm 0.00 in0.0 mm
06:26 AM 40.7°F4.8°C 29.9°F-1.2°C 65% Calm Calm 1.0 mph1.6 kmh 30.42 in1030.1 mb 0.00 in0.0 mm 0.00 in0.0 mm 0.00 in0.0 mm
06:31 AM 40.8°F4.9°C 30.7°F-0.7°C 67% Calm Calm 1.0 mph1.6 kmh 30.41 in1029.8 mb 0.00 in0.0 mm 0.00 in0.0 mm 0.00 in0.0 mm
06:36 AM 40.7°F4.8°C 31.0°F-0.6°C 68% Calm Calm -- 30.42 in1030.1 mb 0.00 in0.0 mm 0.00 in0.0 mm 0.00 in0.0 mm
06:41 AM 40.7°F4.8°C 31.4°F-0.3°C 69% Calm Calm -- 30.42 in1030.1 mb 0.00 in0.0 mm 0.00 in0.0 mm 0.00 in0.0 mm
06:46 AM 40.6°F4.8°C 30.9°F-0.6°C 68% Calm Calm -- 30.42 in1030.1 mb 0.00 in0.0 mm 0.00 in0.0 mm 0.00 in0.0 mm
06:51 AM 40.6°F4.8°C 30.6°F-0.8°C 67% Calm Calm -- 30.42 in1030.1 mb 0.00 in0.0 mm 0.00 in0.0 mm 0.00 in0.0 mm
06:56 AM 40.7°F4.8°C 30.2°F-1.0°C 66% Calm Calm -- 30.42 in1030.1 mb 0.00 in0.0 mm 0.00 in0.0 mm 0.00 in0.0 mm
07:01 AM 40.7°F4.8°C 31.0°F-0.6°C 68% Calm Calm -- 30.42 in1030.1 mb 0.00 in0.0 mm 0.00 in0.0 mm 0.00 in0.0 mm
07:06 AM 40.7°F4.8°C 31.0°F-0.6°C 68% Calm Calm -- 30.43 in1030.5 mb 0.00 in0.0 mm 0.00 in0.0 mm 0.00 in0.0 mm
07:11 AM 40.7°F4.8°C 30.3°F-0.9°C 66% Calm Calm -- 30.43 in1030.5 mb 0.00 in0.0 mm 0.00 in0.0 mm 0.00 in0.0 mm
07:16 AM 40.8°F4.9°C 30.4°F-0.9°C 66% Calm Calm -- 30.43 in1030.5 mb 0.00 in0.0 mm 0.00 in0.0 mm 0.00 in0.0 mm
07:21 AM 41.0°F5.0°C 30.6°F-0.8°C 66% Calm Calm -- 30.43 in1030.5 mb 0.00 in0.0 mm 0.00 in0.0 mm 0.00 in0.0 mm
07:26 AM 41.1°F5.1°C 31.0°F-0.6°C 67% Calm Calm -- 30.43 in1030.5 mb 0.00 in0.0 mm 0.00 in0.0 mm 0.00 in0.0 mm
07:31 AM 41.2°F5.1°C 30.8°F-0.7°C 66% Calm Calm -- 30.43 in1030.5 mb 0.00 in0.0 mm 0.00 in0.0 mm 0.00 in0.0 mm
07:36 AM 41.3°F5.2°C 31.3°F-0.4°C 67% Calm Calm -- 30.43 in1030.5 mb 0.00 in0.0 mm 0.00 in0.0 mm 0.00 in0.0 mm
07:41 AM 41.4°F5.2°C 32.1°F0.1°C 69% Calm Calm -- 30.43 in1030.5 mb 0.00 in0.0 mm 0.00 in0.0 mm 0.00 in0.0 mm
07:46 AM 41.5°F5.3°C 32.2°F0.1°C 69% Calm Calm 1.0 mph1.6 kmh 30.44 in1030.8 mb 0.00 in0.0 mm 0.00 in0.0 mm 0.00 in0.0 mm
07:51 AM 41.6°F5.3°C 31.2°F-0.4°C 66% 1.5 mph WNW2.4 kmh WNW 2.0 mph3.2 kmh 30.44 in1030.8 mb 0.00 in0.0 mm 0.00 in0.0 mm 0.00 in0.0 mm
07:56 AM 41.7°F5.4°C 30.8°F-0.7°C 65% Calm Calm 2.0 mph3.2 kmh 30.44 in1030.8 mb 0.00 in0.0 mm 0.00 in0.0 mm 0.00 in0.0 mm
08:01 AM 41.8°F5.4°C 31.7°F-0.2°C 67% Calm Calm 2.0 mph3.2 kmh 30.44 in1030.8 mb 0.00 in0.0 mm 0.00 in0.0 mm 0.00 in0.0 mm
08:06 AM 41.7°F5.4°C 31.2°F-0.4°C 66% Calm Calm 2.0 mph3.2 kmh 30.45 in1031.2 mb 0.00 in0.0 mm 0.00 in0.0 mm 0.00 in0.0 mm
08:11 AM 41.7°F5.4°C 32.7°F0.4°C 70% Calm Calm -- 30.45 in1031.2 mb 0.00 in0.0 mm 0.00 in0.0 mm 0.00 in0.0 mm
08:16 AM 41.6°F5.3°C 33.0°F0.6°C 71% Calm Calm -- 30.46 in1031.5 mb 0.00 in0.0 mm 0.00 in0.0 mm 0.00 in0.0 mm
08:21 AM 41.5°F5.3°C 32.9°F0.5°C 71% Calm Calm -- 30.46 in1031.5 mb 0.00 in0.0 mm 0.00 in0.0 mm 0.00 in0.0 mm
08:26 AM 41.3°F5.2°C 33.0°F0.6°C 72% Calm Calm -- 30.47 in1031.8 mb 0.00 in0.0 mm 0.00 in0.0 mm 0.00 in0.0 mm
08:31 AM 41.3°F5.2°C 32.7°F0.4°C 71% 1.0 mph W1.6 kmh W 1.0 mph1.6 kmh 30.47 in1031.8 mb 0.00 in0.0 mm 0.00 in0.0 mm 0.00 in0.0 mm
08:36 AM 41.4°F5.2°C 32.1°F0.1°C 69% Calm Calm 1.0 mph1.6 kmh 30.47 in1031.8 mb 0.00 in0.0 mm 0.00 in0.0 mm 0.00 in0.0 mm
08:41 AM 41.6°F5.3°C 32.6°F0.3°C 70% Calm Calm 1.0 mph1.6 kmh 30.47 in1031.8 mb 0.00 in0.0 mm 0.00 in0.0 mm 0.00 in0.0 mm
08:46 AM 41.7°F5.4°C 32.4°F0.2°C 69% Calm Calm 1.0 mph1.6 kmh 30.47 in1031.8 mb 0.00 in0.0 mm 0.00 in0.0 mm 0.00 in0.0 mm
08:51 AM 41.9°F5.5°C 31.8°F-0.1°C 67% Calm Calm 1.0 mph1.6 kmh 30.47 in1031.8 mb 0.00 in0.0 mm 0.00 in0.0 mm 0.00 in0.0 mm
08:56 AM 42.2°F5.7°C 31.7°F-0.2°C 66% Calm Calm 1.0 mph1.6 kmh 30.46 in1031.5 mb 0.00 in0.0 mm 0.00 in0.0 mm 0.00 in0.0 mm
09:01 AM 42.4°F5.8°C 31.6°F-0.2°C 65% Calm Calm 1.0 mph1.6 kmh 30.46 in1031.5 mb 0.00 in0.0 mm 0.00 in0.0 mm 0.00 in0.0 mm
09:06 AM 42.7°F5.9°C 31.4°F-0.3°C 64% 1.0 mph W1.6 kmh W 1.0 mph1.6 kmh 30.47 in1031.8 mb 0.00 in0.0 mm 0.00 in0.0 mm 0.00 in0.0 mm
09:11 AM 42.9°F6.1°C 31.2°F-0.4°C 63% 1.0 mph W1.6 kmh W 1.0 mph1.6 kmh 30.47 in1031.8 mb 0.00 in0.0 mm 0.00 in0.0 mm 0.00 in0.0 mm
09:16 AM 43.2°F6.2°C 31.5°F-0.3°C 63% 1.2 mph WNW1.9 kmh WNW 3.0 mph4.8 kmh 30.48 in1032.2 mb 0.00 in0.0 mm 0.00 in0.0 mm 0.00 in0.0 mm
09:21 AM 43.3°F6.3°C 31.1°F-0.5°C 62% 1.7 mph W2.7 kmh W 3.0 mph4.8 kmh 30.48 in1032.2 mb 0.00 in0.0 mm 0.00 in0.0 mm 0.00 in0.0 mm
09:26 AM 43.4°F6.3°C 31.3°F-0.4°C 62% 1.3 mph NW2.1 kmh NW 3.0 mph4.8 kmh 30.48 in1032.2 mb 0.00 in0.0 mm 0.00 in0.0 mm 0.00 in0.0 mm
09:31 AM 43.5°F6.4°C 31.8°F-0.1°C 63% 1.4 mph NW2.3 kmh NW 3.0 mph4.8 kmh 30.47 in1031.8 mb 0.00 in0.0 mm 0.00 in0.0 mm 0.00 in0.0 mm
09:36 AM 43.5°F6.4°C 32.2°F0.1°C 64% 1.2 mph NW1.9 kmh NW 2.0 mph3.2 kmh 30.48 in1032.2 mb 0.00 in0.0 mm 0.00 in0.0 mm 0.00 in0.0 mm
09:41 AM 43.6°F6.4°C 32.7°F0.4°C 65% 1.1 mph WNW1.8 kmh WNW 2.0 mph3.2 kmh 30.49 in1032.5 mb 0.00 in0.0 mm 0.00 in0.0 mm 0.00 in0.0 mm
09:46 AM 43.6°F6.4°C 32.7°F0.4°C 65% 1.0 mph W1.6 kmh W 4.0 mph6.4 kmh 30.49 in1032.5 mb 0.00 in0.0 mm 0.00 in0.0 mm 0.00 in0.0 mm
09:51 AM 43.6°F6.4°C 32.7°F0.4°C 65% 1.0 mph WNW1.6 kmh WNW 4.0 mph6.4 kmh 30.49 in1032.5 mb 0.00 in0.0 mm 0.00 in0.0 mm 0.00 in0.0 mm
09:56 AM 43.7°F6.5°C 32.8°F0.4°C 65% Calm Calm 4.0 mph6.4 kmh 30.49 in1032.5 mb 0.00 in0.0 mm 0.00 in0.0 mm 0.00 in0.0 mm
10:01 AM 43.9°F6.6°C 33.0°F0.6°C 65% Calm Calm 4.0 mph6.4 kmh 30.49 in1032.5 mb 0.00 in0.0 mm 0.00 in0.0 mm 0.00 in0.0 mm
10:06 AM 44.1°F6.7°C 32.4°F0.2°C 63% 1.6 mph WNW2.6 kmh WNW 4.0 mph6.4 kmh 30.50 in1032.8 mb 0.00 in0.0 mm 0.00 in0.0 mm 0.00 in0.0 mm
10:11 AM 44.3°F6.8°C 32.6°F0.3°C 63% 1.0 mph NW1.6 kmh NW 4.0 mph6.4 kmh 30.49 in1032.5 mb 0.00 in0.0 mm 0.00 in0.0 mm 0.00 in0.0 mm
10:16 AM 44.5°F6.9°C 33.1°F0.6°C 64% Calm Calm 3.0 mph4.8 kmh 30.49 in1032.5 mb 0.00 in0.0 mm 0.00 in0.0 mm 0.00 in0.0 mm
10:21 AM 44.7°F7.1°C 32.1°F0.1°C 61% 1.4 mph NW2.3 kmh NW 4.0 mph6.4 kmh 30.48 in1032.2 mb 0.00 in0.0 mm 0.00 in0.0 mm 0.00 in0.0 mm
10:26 AM 44.9°F7.2°C 32.8°F0.4°C 62% Calm Calm 4.0 mph6.4 kmh 30.49 in1032.5 mb 0.00 in0.0 mm 0.00 in0.0 mm 0.00 in0.0 mm
10:31 AM 45.2°F7.3°C 32.6°F0.3°C 61% 1.0 mph NW1.6 kmh NW 4.0 mph6.4 kmh 30.49 in1032.5 mb 0.00 in0.0 mm 0.00 in0.0 mm 0.00 in0.0 mm
10:35 AM 45.3°F7.4°C 32.2°F0.1°C 60% 2.1 mph NNW3.4 kmh NNW 5.0 mph8.0 kmh 30.49 in1032.5 mb 0.00 in0.0 mm 0.00 in0.0 mm 0.00 in0.0 mm
10:40 AM 45.3°F7.4°C 32.3°F0.2°C 60% 1.2 mph NNW1.9 kmh NNW 5.0 mph8.0 kmh 30.49 in1032.5 mb 0.00 in0.0 mm 0.00 in0.0 mm 0.00 in0.0 mm
10:45 AM 45.5°F7.5°C 32.5°F0.3°C 60% 2.2 mph NNW3.5 kmh NNW 7.0 mph11.3 kmh 30.48 in1032.2 mb 0.00 in0.0 mm 0.00 in0.0 mm 0.00 in0.0 mm
10:50 AM 45.6°F7.6°C 32.2°F0.1°C 59% 1.0 mph NNW1.6 kmh NNW 7.0 mph11.3 kmh 30.48 in1032.2 mb 0.00 in0.0 mm 0.00 in0.0 mm 0.00 in0.0 mm
10:55 AM 46.0°F7.8°C 32.5°F0.3°C 59% Calm Calm 7.0 mph11.3 kmh 30.48 in1032.2 mb 0.00 in0.0 mm 0.00 in0.0 mm 0.00 in0.0 mm
11:00 AM 46.4°F8.0°C 32.5°F0.3°C 58% Calm Calm 7.0 mph11.3 kmh 30.48 in1032.2 mb 0.00 in0.0 mm 0.00 in0.0 mm 0.00 in0.0 mm
11:05 AM 46.7°F8.2°C 32.3°F0.2°C 57% 1.5 mph NNW2.4 kmh NNW 2.0 mph3.2 kmh 30.48 in1032.2 mb 0.00 in0.0 mm 0.00 in0.0 mm 0.00 in0.0 mm
11:10 AM 46.7°F8.2°C 31.9°F-0.1°C 56% 1.0 mph N1.6 kmh N 4.0 mph6.4 kmh 30.48 in1032.2 mb 0.00 in0.0 mm 0.00 in0.0 mm 0.00 in0.0 mm
11:15 AM 46.8°F8.2°C 32.4°F0.2°C 57% Calm Calm 4.0 mph6.4 kmh 30.48 in1032.2 mb 0.00 in0.0 mm 0.00 in0.0 mm 0.00 in0.0 mm
11:21 AM 46.9°F8.3°C 32.5°F0.3°C 57% 1.0 mph NE1.6 kmh NE 4.0 mph6.4 kmh 30.48 in1032.2 mb 0.00 in0.0 mm 0.00 in0.0 mm 0.00 in0.0 mm
11:26 AM 47.1°F8.4°C 31.7°F-0.2°C 55% Calm Calm 3.0 mph4.8 kmh 30.48 in1032.2 mb 0.00 in0.0 mm 0.00 in0.0 mm 0.00 in0.0 mm
11:31 AM 47.3°F8.5°C 32.4°F0.2°C 56% Calm Calm 3.0 mph4.8 kmh 30.48 in1032.2 mb 0.00 in0.0 mm 0.00 in0.0 mm 0.00 in0.0 mm
11:36 AM 47.5°F8.6°C 32.1°F0.1°C 55% Calm Calm 3.0 mph4.8 kmh 30.47 in1031.8 mb 0.00 in0.0 mm 0.00 in0.0 mm 0.00 in0.0 mm
11:41 AM 47.5°F8.6°C 32.6°F0.3°C 56% 1.0 mph NE1.6 kmh NE 3.0 mph4.8 kmh 30.48 in1032.2 mb 0.00 in0.0 mm 0.00 in0.0 mm 0.00 in0.0 mm
11:46 AM 47.6°F8.7°C 32.7°F0.4°C 56% 1.0 mph NE1.6 kmh NE 3.0 mph4.8 kmh 30.48 in1032.2 mb 0.00 in0.0 mm 0.00 in0.0 mm 0.00 in0.0 mm
11:51 AM 47.6°F8.7°C 32.7°F0.4°C 56% Calm Calm 3.0 mph4.8 kmh 30.47 in1031.8 mb 0.00 in0.0 mm 0.00 in0.0 mm 0.00 in0.0 mm
11:56 AM 47.6°F8.7°C 32.7°F0.4°C 56% 1.0 mph NE1.6 kmh NE 3.0 mph4.8 kmh 30.47 in1031.8 mb 0.00 in0.0 mm 0.00 in0.0 mm 0.00 in0.0 mm
12:01 PM 47.5°F8.6°C 32.6°F0.3°C 56% 1.5 mph NE2.4 kmh NE 3.0 mph4.8 kmh 30.47 in1031.8 mb 0.00 in0.0 mm 0.00 in0.0 mm 0.00 in0.0 mm
12:06 PM 47.5°F8.6°C 32.6°F0.3°C 56% Calm Calm 3.0 mph4.8 kmh 30.47 in1031.8 mb 0.00 in0.0 mm 0.00 in0.0 mm 0.00 in0.0 mm
12:11 PM 47.5°F8.6°C 33.1°F0.6°C 57% 1.7 mph NE2.7 kmh NE 3.0 mph4.8 kmh 30.46 in1031.5 mb 0.00 in0.0 mm 0.00 in0.0 mm 0.00 in0.0 mm
12:16 PM 47.3°F8.5°C 32.9°F0.5°C 57% 2.2 mph NE3.5 kmh NE 4.0 mph6.4 kmh 30.46 in1031.5 mb 0.00 in0.0 mm 0.00 in0.0 mm 0.00 in0.0 mm
12:21 PM 47.2°F8.4°C 32.7°F0.4°C 57% 1.0 mph E1.6 kmh E 4.0 mph6.4 kmh 30.46 in1031.5 mb 0.00 in0.0 mm 0.00 in0.0 mm 0.00 in0.0 mm
12:26 PM 47.2°F8.4°C 33.2°F0.7°C 58% Calm Calm 4.0 mph6.4 kmh 30.45 in1031.2 mb 0.00 in0.0 mm 0.00 in0.0 mm 0.00 in0.0 mm
12:31 PM 47.2°F8.4°C 34.1°F1.2°C 60% Calm Calm 4.0 mph6.4 kmh 30.45 in1031.2 mb 0.00 in0.0 mm 0.00 in0.0 mm 0.00 in0.0 mm
12:36 PM 47.2°F8.4°C 34.5°F1.4°C 61% Calm Calm 2.0 mph3.2 kmh 30.45 in1031.2 mb 0.00 in0.0 mm 0.00 in0.0 mm 0.00 in0.0 mm
12:41 PM 47.1°F8.4°C 34.4°F1.3°C 61% Calm Calm 1.0 mph1.6 kmh 30.45 in1031.2 mb 0.00 in0.0 mm 0.00 in0.0 mm 0.00 in0.0 mm
12:46 PM 46.9°F8.3°C 33.8°F1.0°C 60% Calm Calm 1.0 mph1.6 kmh 30.45 in1031.2 mb 0.00 in0.0 mm 0.00 in0.0 mm 0.00 in0.0 mm
12:51 PM 46.9°F8.3°C 33.8°F1.0°C 60% 1.0 mph NNE1.6 kmh NNE 1.0 mph1.6 kmh 30.45 in1031.2 mb 0.00 in0.0 mm 0.00 in0.0 mm 0.00 in0.0 mm
12:56 PM 46.9°F8.3°C 34.1°F1.2°C 61% 1.0 mph NE1.6 kmh NE 1.0 mph1.6 kmh 30.45 in1031.2 mb 0.00 in0.0 mm 0.00 in0.0 mm 0.00 in0.0 mm
01:01 PM 46.8°F8.2°C 34.6°F1.4°C 62% 2.2 mph NE3.5 kmh NE 4.0 mph6.4 kmh 30.44 in1030.8 mb 0.00 in0.0 mm 0.00 in0.0 mm 0.00 in0.0 mm
01:06 PM 46.7°F8.2°C 34.9°F1.6°C 63% 1.0 mph NE1.6 kmh NE 4.0 mph6.4 kmh 30.44 in1030.8 mb 0.00 in0.0 mm 0.00 in0.0 mm 0.00 in0.0 mm
01:11 PM 46.7°F8.2°C 35.6°F2.0°C 65% 1.0 mph NNW1.6 kmh NNW 4.0 mph6.4 kmh 30.44 in1030.8 mb 0.00 in0.0 mm 0.00 in0.0 mm 0.00 in0.0 mm
01:16 PM 46.5°F8.1°C 35.5°F1.9°C 65% Calm Calm 4.0 mph6.4 kmh 30.44 in1030.8 mb 0.00 in0.0 mm 0.00 in0.0 mm 0.00 in0.0 mm
01:21 PM 46.5°F8.1°C 36.6°F2.6°C 68% Calm Calm 3.0 mph4.8 kmh 30.44 in1030.8 mb 0.00 in0.0 mm 0.00 in0.0 mm 0.00 in0.0 mm
01:26 PM 46.1°F7.8°C 36.6°F2.6°C 69% 1.0 mph NE1.6 kmh NE 3.0 mph4.8 kmh 30.44 in1030.8 mb 0.00 in0.0 mm 0.00 in0.0 mm 0.00 in0.0 mm
01:31 PM 45.7°F7.6°C 37.3°F2.9°C 72% Calm Calm 3.0 mph4.8 kmh 30.44 in1030.8 mb 0.00 in0.0 mm 0.00 in0.0 mm 0.00 in0.0 mm
01:36 PM 45.4°F7.4°C 37.2°F2.9°C 73% 1.0 mph NNW1.6 kmh NNW 3.0 mph4.8 kmh 30.44 in1030.8 mb 0.00 in0.0 mm 0.00 in0.0 mm 0.00 in0.0 mm
01:41 PM 45.1°F7.3°C 37.7°F3.2°C 75% Calm Calm 3.0 mph4.8 kmh 30.44 in1030.8 mb 0.00 in0.0 mm 0.00 in0.0 mm 0.00 in0.0 mm
01:46 PM 45.0°F7.2°C 38.6°F3.7°C 78% Calm Calm 1.0 mph1.6 kmh 30.44 in1030.8 mb 0.00 in0.0 mm 0.00 in0.0 mm 0.00 in0.0 mm
01:51 PM 45.0°F7.2°C 39.5°F4.2°C 81% Calm Calm 1.0 mph1.6 kmh 30.44 in1030.8 mb 0.01 in0.3 mm 0.12 in3.0 mm 0.01 in0.3 mm
01:56 PM 45.0°F7.2°C 39.2°F4.0°C 80% 1.0 mph N1.6 kmh N 1.0 mph1.6 kmh 30.44 in1030.8 mb 0.01 in0.3 mm 0.00 in0.0 mm 0.01 in0.3 mm
02:01 PM 44.9°F7.2°C 39.4°F4.1°C 81% Calm Calm 1.0 mph1.6 kmh 30.43 in1030.5 mb 0.01 in0.3 mm 0.00 in0.0 mm 0.01 in0.3 mm
02:06 PM 44.9°F7.2°C 39.1°F3.9°C 80% 1.0 mph NE1.6 kmh NE 1.0 mph1.6 kmh 30.43 in1030.5 mb 0.01 in0.3 mm 0.00 in0.0 mm 0.01 in0.3 mm
02:11 PM 44.8°F7.1°C 38.7°F3.7°C 79% 1.0 mph NNE1.6 kmh NNE 1.0 mph1.6 kmh 30.43 in1030.5 mb 0.01 in0.3 mm 0.00 in0.0 mm 0.01 in0.3 mm
02:16 PM 44.9°F7.2°C 38.8°F3.8°C 79% Calm Calm 1.0 mph1.6 kmh 30.43 in1030.5 mb 0.01 in0.3 mm 0.00 in0.0 mm 0.01 in0.3 mm
02:21 PM 44.8°F7.1°C 38.4°F3.6°C 78% Calm Calm 1.0 mph1.6 kmh 30.43 in1030.5 mb 0.01 in0.3 mm 0.00 in0.0 mm 0.01 in0.3 mm
02:26 PM 44.8°F7.1°C 39.0°F3.9°C 80% Calm Calm 1.0 mph1.6 kmh 30.43 in1030.5 mb 0.01 in0.3 mm 0.00 in0.0 mm 0.01 in0.3 mm
02:31 PM 44.8°F7.1°C 38.7°F3.7°C 79% Calm Calm 1.0 mph1.6 kmh 30.42 in1030.1 mb 0.01 in0.3 mm 0.00 in0.0 mm 0.01 in0.3 mm
02:36 PM 44.9°F7.2°C 39.1°F3.9°C 80% Calm Calm 1.0 mph1.6 kmh 30.42 in1030.1 mb 0.01 in0.3 mm 0.00 in0.0 mm 0.01 in0.3 mm
02:41 PM 45.0°F7.2°C 38.9°F3.8°C 79% Calm Calm -- 30.42 in1030.1 mb 0.01 in0.3 mm 0.00 in0.0 mm 0.01 in0.3 mm
02:46 PM 45.0°F7.2°C 38.6°F3.7°C 78% Calm Calm 1.0 mph1.6 kmh 30.42 in1030.1 mb 0.01 in0.3 mm 0.00 in0.0 mm 0.01 in0.3 mm
02:51 PM 45.0°F7.2°C 38.6°F3.7°C 78% Calm Calm 1.0 mph1.6 kmh 30.42 in1030.1 mb 0.00 in0.0 mm 0.00 in0.0 mm 0.01 in0.3 mm
02:56 PM 45.1°F7.3°C 38.7°F3.7°C 78% Calm Calm 1.0 mph1.6 kmh 30.42 in1030.1 mb 0.00 in0.0 mm 0.00 in0.0 mm 0.01 in0.3 mm
03:01 PM 45.1°F7.3°C 38.7°F3.7°C 78% Calm Calm 1.0 mph1.6 kmh 30.41 in1029.8 mb 0.00 in0.0 mm 0.00 in0.0 mm 0.01 in0.3 mm
03:06 PM 45.2°F7.3°C 39.1°F3.9°C 79% Calm Calm 1.0 mph1.6 kmh 30.41 in1029.8 mb 0.00 in0.0 mm 0.00 in0.0 mm 0.01 in0.3 mm
03:11 PM 45.3°F7.4°C 38.8°F3.8°C 78% Calm Calm 1.0 mph1.6 kmh 30.40 in1029.5 mb 0.00 in0.0 mm 0.00 in0.0 mm 0.01 in0.3 mm
03:16 PM 45.3°F7.4°C 39.2°F4.0°C 79% Calm Calm 1.0 mph1.6 kmh 30.40 in1029.5 mb 0.00 in0.0 mm 0.00 in0.0 mm 0.01 in0.3 mm
03:21 PM 45.3°F7.4°C 38.9°F3.8°C 78% Calm Calm -- 30.40 in1029.5 mb 0.00 in0.0 mm 0.00 in0.0 mm 0.01 in0.3 mm
03:26 PM 45.5°F7.5°C 39.4°F4.1°C 79% Calm Calm -- 30.40 in1029.5 mb 0.00 in0.0 mm 0.00 in0.0 mm 0.01 in0.3 mm
03:31 PM 45.4°F7.4°C 39.6°F4.2°C 80% Calm Calm -- 30.40 in1029.5 mb 0.00 in0.0 mm 0.00 in0.0 mm 0.01 in0.3 mm
03:35 PM 45.4°F7.4°C 39.3°F4.1°C 79% Calm Calm -- 30.40 in1029.5 mb 0.00 in0.0 mm 0.00 in0.0 mm 0.01 in0.3 mm
03:40 PM 45.5°F7.5°C 39.1°F3.9°C 78% Calm Calm -- 30.40 in1029.5 mb 0.00 in0.0 mm 0.00 in0.0 mm 0.01 in0.3 mm
03:45 PM 45.4°F7.4°C 38.3°F3.5°C 76% Calm Calm -- 30.40 in1029.5 mb 0.00 in0.0 mm 0.00 in0.0 mm 0.01 in0.3 mm
03:50 PM 45.4°F7.4°C 39.0°F3.9°C 78% Calm Calm -- 30.39 in1029.1 mb 0.00 in0.0 mm 0.00 in0.0 mm 0.01 in0.3 mm
03:55 PM 45.5°F7.5°C 39.4°F4.1°C 79% Calm Calm -- 30.40 in1029.5 mb 0.00 in0.0 mm 0.00 in0.0 mm 0.01 in0.3 mm
04:00 PM 45.7°F7.6°C 39.6°F4.2°C 79% Calm Calm -- 30.40 in1029.5 mb 0.00 in0.0 mm 0.00 in0.0 mm 0.01 in0.3 mm
04:05 PM 45.7°F7.6°C 39.9°F4.4°C 80% Calm Calm -- 30.39 in1029.1 mb 0.00 in0.0 mm 0.00 in0.0 mm 0.01 in0.3 mm
04:10 PM 45.7°F7.6°C 40.2°F4.6°C 81% Calm Calm -- 30.40 in1029.5 mb 0.00 in0.0 mm 0.00 in0.0 mm 0.01 in0.3 mm
04:15 PM 45.8°F7.7°C 40.0°F4.4°C 80% Calm Calm -- 30.40 in1029.5 mb 0.00 in0.0 mm 0.00 in0.0 mm 0.01 in0.3 mm
04:20 PM 45.8°F7.7°C 40.3°F4.6°C 81% Calm Calm -- 30.40 in1029.5 mb 0.00 in0.0 mm 0.00 in0.0 mm 0.01 in0.3 mm
04:25 PM 45.8°F7.7°C 40.0°F4.4°C 80% Calm Calm -- 30.40 in1029.5 mb 0.00 in0.0 mm 0.00 in0.0 mm 0.01 in0.3 mm
04:30 PM 45.7°F7.6°C 39.6°F4.2°C 79% Calm Calm -- 30.40 in1029.5 mb 0.00 in0.0 mm 0.00 in0.0 mm 0.01 in0.3 mm
04:35 PM 45.7°F7.6°C 39.9°F4.4°C 80% Calm Calm -- 30.40 in1029.5 mb 0.00 in0.0 mm 0.00 in0.0 mm 0.01 in0.3 mm
04:40 PM 45.7°F7.6°C 39.6°F4.2°C 79% Calm Calm -- 30.40 in1029.5 mb 0.00 in0.0 mm 0.00 in0.0 mm 0.01 in0.3 mm
04:46 PM 45.7°F7.6°C 39.9°F4.4°C 80% Calm Calm -- 30.40 in1029.5 mb 0.00 in0.0 mm 0.00 in0.0 mm 0.01 in0.3 mm
04:51 PM 45.7°F7.6°C 39.9°F4.4°C 80% Calm Calm -- 30.40 in1029.5 mb 0.00 in0.0 mm 0.00 in0.0 mm 0.01 in0.3 mm
04:56 PM 45.7°F7.6°C 39.6°F4.2°C 79% Calm Calm -- 30.41 in1029.8 mb 0.00 in0.0 mm 0.00 in0.0 mm 0.01 in0.3 mm
05:01 PM 45.6°F7.6°C 40.1°F4.5°C 81% Calm Calm -- 30.41 in1029.8 mb 0.00 in0.0 mm 0.00 in0.0 mm 0.01 in0.3 mm
05:06 PM 45.6°F7.6°C 40.4°F4.7°C 82% Calm Calm -- 30.41 in1029.8 mb 0.00 in0.0 mm 0.00 in0.0 mm 0.01 in0.3 mm
05:11 PM 45.5°F7.5°C 40.3°F4.6°C 82% Calm Calm -- 30.41 in1029.8 mb 0.00 in0.0 mm 0.00 in0.0 mm 0.01 in0.3 mm
05:16 PM 45.5°F7.5°C 40.6°F4.8°C 83% Calm Calm -- 30.40 in1029.5 mb 0.00 in0.0 mm 0.00 in0.0 mm 0.01 in0.3 mm
05:21 PM 45.4°F7.4°C 40.5°F4.7°C 83% Calm Calm -- 30.40 in1029.5 mb 0.00 in0.0 mm 0.00 in0.0 mm 0.01 in0.3 mm
05:26 PM 45.3°F7.4°C 40.4°F4.7°C 83% Calm Calm -- 30.40 in1029.5 mb 0.00 in0.0 mm 0.00 in0.0 mm 0.01 in0.3 mm
05:31 PM 45.3°F7.4°C 40.7°F4.8°C 84% Calm Calm -- 30.40 in1029.5 mb 0.00 in0.0 mm 0.00 in0.0 mm 0.01 in0.3 mm
05:36 PM 45.2°F7.3°C 41.0°F5.0°C 85% Calm Calm -- 30.40 in1029.5 mb 0.00 in0.0 mm 0.00 in0.0 mm 0.01 in0.3 mm
05:41 PM 45.2°F7.3°C 41.0°F5.0°C 85% Calm Calm -- 30.40 in1029.5 mb 0.00 in0.0 mm 0.00 in0.0 mm 0.01 in0.3 mm
05:46 PM 45.0°F7.2°C 40.7°F4.8°C 85% Calm Calm -- 30.40 in1029.5 mb 0.00 in0.0 mm 0.00 in0.0 mm 0.01 in0.3 mm
05:51 PM 44.9°F7.2°C 40.7°F4.8°C 85% Calm Calm -- 30.40 in1029.5 mb 0.00 in0.0 mm 0.00 in0.0 mm 0.01 in0.3 mm
05:56 PM 44.8°F7.1°C 40.9°F4.9°C 86% Calm Calm -- 30.40 in1029.5 mb 0.00 in0.0 mm 0.00 in0.0 mm 0.01 in0.3 mm
06:01 PM 44.8°F7.1°C 40.6°F4.8°C 85% Calm Calm -- 30.41 in1029.8 mb 0.00 in0.0 mm 0.00 in0.0 mm 0.01 in0.3 mm
06:06 PM 44.8°F7.1°C 40.8°F4.9°C 86% Calm Calm -- 30.41 in1029.8 mb 0.00 in0.0 mm 0.00 in0.0 mm 0.01 in0.3 mm
06:11 PM 44.9°F7.2°C 40.9°F4.9°C 86% Calm Calm -- 30.41 in1029.8 mb 0.00 in0.0 mm 0.00 in0.0 mm 0.01 in0.3 mm
06:16 PM 44.9°F7.2°C 41.0°F5.0°C 86% Calm Calm -- 30.41 in1029.8 mb 0.00 in0.0 mm 0.00 in0.0 mm 0.01 in0.3 mm
06:21 PM 44.9°F7.2°C 40.9°F4.9°C 86% Calm Calm -- 30.41 in1029.8 mb 0.00 in0.0 mm 0.00 in0.0 mm 0.01 in0.3 mm
06:26 PM 44.9°F7.2°C 40.9°F4.9°C 86% Calm Calm -- 30.41 in1029.8 mb 0.00 in0.0 mm 0.00 in0.0 mm 0.01 in0.3 mm
06:31 PM 45.0°F7.2°C 41.0°F5.0°C 86% Calm Calm -- 30.41 in1029.8 mb 0.00 in0.0 mm 0.00 in0.0 mm 0.01 in0.3 mm
06:36 PM 44.9°F7.2°C 40.9°F4.9°C 86% Calm Calm -- 30.41 in1029.8 mb 0.00 in0.0 mm 0.00 in0.0 mm 0.01 in0.3 mm
06:41 PM 44.9°F7.2°C 40.9°F4.9°C 86% Calm Calm -- 30.41 in1029.8 mb 0.00 in0.0 mm 0.00 in0.0 mm 0.01 in0.3 mm
06:46 PM 44.9°F7.2°C 41.0°F5.0°C 86% Calm Calm -- 30.41 in1029.8 mb 0.00 in0.0 mm 0.00 in0.0 mm 0.01 in0.3 mm
06:51 PM 44.9°F7.2°C 40.9°F4.9°C 86% Calm Calm -- 30.41 in1029.8 mb 0.00 in0.0 mm 0.00 in0.0 mm 0.01 in0.3 mm
06:56 PM 44.8°F7.1°C 40.8°F4.9°C 86% Calm Calm -- 30.41 in1029.8 mb 0.00 in0.0 mm 0.00 in0.0 mm 0.01 in0.3 mm
07:01 PM 44.8°F7.1°C 40.8°F4.9°C 86% Calm Calm -- 30.41 in1029.8 mb 0.00 in0.0 mm 0.00 in0.0 mm 0.01 in0.3 mm
07:06 PM 44.8°F7.1°C 40.8°F4.9°C 86% Calm Calm -- 30.41 in1029.8 mb 0.00 in0.0 mm 0.00 in0.0 mm 0.01 in0.3 mm
07:11 PM 44.8°F7.1°C 40.6°F4.8°C 85% Calm Calm -- 30.40 in1029.5 mb 0.00 in0.0 mm 0.00 in0.0 mm 0.01 in0.3 mm
07:16 PM 44.8°F7.1°C 40.9°F4.9°C 86% Calm Calm -- 30.41 in1029.8 mb 0.00 in0.0 mm 0.00 in0.0 mm 0.01 in0.3 mm
07:21 PM 44.7°F7.1°C 41.0°F5.0°C 87% Calm Calm -- 30.41 in1029.8 mb 0.00 in0.0 mm 0.00 in0.0 mm 0.01 in0.3 mm
07:26 PM 44.7°F7.1°C 41.0°F5.0°C 87% Calm Calm -- 30.41 in1029.8 mb 0.00 in0.0 mm 0.00 in0.0 mm 0.01 in0.3 mm
07:31 PM 44.7°F7.1°C 41.1°F5.1°C 87% Calm Calm -- 30.41 in1029.8 mb 0.00 in0.0 mm 0.00 in0.0 mm 0.01 in0.3 mm
07:36 PM 44.6°F7.0°C 40.9°F4.9°C 87% Calm Calm -- 30.41 in1029.8 mb 0.00 in0.0 mm 0.00 in0.0 mm 0.01 in0.3 mm
07:41 PM 44.6°F7.0°C 40.9°F4.9°C 87% Calm Calm -- 30.41 in1029.8 mb 0.00 in0.0 mm 0.00 in0.0 mm 0.01 in0.3 mm
07:46 PM 44.5°F6.9°C 40.8°F4.9°C 87% Calm Calm -- 30.42 in1030.1 mb 0.00 in0.0 mm 0.00 in0.0 mm 0.01 in0.3 mm
07:51 PM 44.5°F6.9°C 40.9°F4.9°C 87% Calm Calm -- 30.42 in1030.1 mb 0.00 in0.0 mm 0.00 in0.0 mm 0.01 in0.3 mm
07:56 PM 44.6°F7.0°C 41.0°F5.0°C 87% Calm Calm -- 30.42 in1030.1 mb 0.00 in0.0 mm 0.00 in0.0 mm 0.01 in0.3 mm
08:01 PM 44.7°F7.1°C 40.8°F4.9°C 86% Calm Calm -- 30.42 in1030.1 mb 0.00 in0.0 mm 0.00 in0.0 mm 0.01 in0.3 mm
08:06 PM 44.7°F7.1°C 40.7°F4.8°C 86% Calm Calm -- 30.41 in1029.8 mb 0.00 in0.0 mm 0.00 in0.0 mm 0.01 in0.3 mm
08:11 PM 44.7°F7.1°C 41.0°F5.0°C 87% Calm Calm -- 30.41 in1029.8 mb 0.00 in0.0 mm 0.00 in0.0 mm 0.01 in0.3 mm
08:16 PM 44.7°F7.1°C 41.0°F5.0°C 87% Calm Calm -- 30.41 in1029.8 mb 0.00 in0.0 mm 0.00 in0.0 mm 0.01 in0.3 mm
08:21 PM 44.7°F7.1°C 41.0°F5.0°C 87% Calm Calm -- 30.41 in1029.8 mb 0.00 in0.0 mm 0.00 in0.0 mm 0.01 in0.3 mm
08:26 PM 44.6°F7.0°C 40.9°F4.9°C 87% Calm Calm -- 30.42 in1030.1 mb 0.00 in0.0 mm 0.00 in0.0 mm 0.01 in0.3 mm
08:30 PM 44.5°F6.9°C 40.8°F4.9°C 87% Calm Calm -- 30.42 in1030.1 mb 0.00 in0.0 mm 0.00 in0.0 mm 0.01 in0.3 mm
08:35 PM 44.5°F6.9°C 40.8°F4.9°C 87% Calm Calm 1.0 mph1.6 kmh 30.42 in1030.1 mb 0.00 in0.0 mm 0.00 in0.0 mm 0.01 in0.3 mm
08:40 PM 44.4°F6.9°C 41.0°F5.0°C 88% Calm Calm 1.0 mph1.6 kmh 30.42 in1030.1 mb 0.00 in0.0 mm 0.00 in0.0 mm 0.01 in0.3 mm
08:45 PM 44.3°F6.8°C 40.9°F4.9°C 88% 1.0 mph NE1.6 kmh NE 1.0 mph1.6 kmh 30.41 in1029.8 mb 0.00 in0.0 mm 0.00 in0.0 mm 0.01 in0.3 mm
08:50 PM 44.1°F6.7°C 40.7°F4.8°C 88% 1.9 mph NE3.1 kmh NE 3.0 mph4.8 kmh 30.41 in1029.8 mb 0.00 in0.0 mm 0.00 in0.0 mm 0.01 in0.3 mm
08:55 PM 44.1°F6.7°C 40.8°F4.9°C 88% 1.0 mph NNE1.6 kmh NNE 3.0 mph4.8 kmh 30.41 in1029.8 mb 0.00 in0.0 mm 0.00 in0.0 mm 0.01 in0.3 mm
09:00 PM 44.1°F6.7°C 40.7°F4.8°C 88% 2.1 mph NE3.4 kmh NE 4.0 mph6.4 kmh 30.40 in1029.5 mb 0.00 in0.0 mm 0.00 in0.0 mm 0.01 in0.3 mm
09:05 PM 44.0°F6.7°C 40.7°F4.8°C 88% 1.5 mph NNE2.4 kmh NNE 4.0 mph6.4 kmh 30.40 in1029.5 mb 0.00 in0.0 mm 0.00 in0.0 mm 0.01 in0.3 mm
09:10 PM 43.9°F6.6°C 40.8°F4.9°C 89% 1.5 mph NE2.4 kmh NE 4.0 mph6.4 kmh 30.40 in1029.5 mb 0.00 in0.0 mm 0.00 in0.0 mm 0.01 in0.3 mm
09:16 PM 43.9°F6.6°C 40.8°F4.9°C 89% Calm Calm 4.0 mph6.4 kmh 30.40 in1029.5 mb 0.00 in0.0 mm 0.00 in0.0 mm 0.01 in0.3 mm
09:21 PM 43.9°F6.6°C 40.8°F4.9°C 89% 1.7 mph NE2.7 kmh NE 3.0 mph4.8 kmh 30.40 in1029.5 mb 0.00 in0.0 mm 0.00 in0.0 mm 0.01 in0.3 mm
09:26 PM 43.9°F6.6°C 40.8°F4.9°C 89% 1.0 mph NE1.6 kmh NE 3.0 mph4.8 kmh 30.39 in1029.1 mb 0.00 in0.0 mm 0.00 in0.0 mm 0.01 in0.3 mm
09:31 PM 43.8°F6.6°C 40.7°F4.8°C 89% 1.0 mph NE1.6 kmh NE 2.0 mph3.2 kmh 30.39 in1029.1 mb 0.00 in0.0 mm 0.00 in0.0 mm 0.01 in0.3 mm
09:36 PM 43.8°F6.6°C 40.7°F4.8°C 89% 1.7 mph NE2.7 kmh NE 3.0 mph4.8 kmh 30.39 in1029.1 mb 0.00 in0.0 mm 0.00 in0.0 mm 0.01 in0.3 mm
09:41 PM 43.8°F6.6°C 40.8°F4.9°C 89% 1.8 mph NE2.9 kmh NE 3.0 mph4.8 kmh 30.39 in1029.1 mb 0.00 in0.0 mm 0.00 in0.0 mm 0.01 in0.3 mm
09:46 PM 43.8°F6.6°C 41.0°F5.0°C 90% 1.3 mph NNE2.1 kmh NNE 3.0 mph4.8 kmh 30.39 in1029.1 mb 0.00 in0.0 mm 0.00 in0.0 mm 0.01 in0.3 mm
09:51 PM 43.8°F6.6°C 41.0°F5.0°C 90% 1.9 mph NE3.1 kmh NE 4.0 mph6.4 kmh 30.39 in1029.1 mb 0.00 in0.0 mm 0.00 in0.0 mm 0.01 in0.3 mm
09:56 PM 43.8°F6.6°C 40.7°F4.8°C 89% 2.1 mph NE3.4 kmh NE 4.0 mph6.4 kmh 30.39 in1029.1 mb 0.00 in0.0 mm 0.00 in0.0 mm 0.01 in0.3 mm
10:01 PM 43.7°F6.5°C 41.0°F5.0°C 90% 1.0 mph NNE1.6 kmh NNE 4.0 mph6.4 kmh 30.40 in1029.5 mb 0.00 in0.0 mm 0.00 in0.0 mm 0.01 in0.3 mm
10:06 PM 43.7°F6.5°C 40.9°F4.9°C 90% 1.8 mph NE2.9 kmh NE 4.0 mph6.4 kmh 30.40 in1029.5 mb 0.00 in0.0 mm 0.00 in0.0 mm 0.01 in0.3 mm
10:11 PM 43.7°F6.5°C 40.9°F4.9°C 90% 1.9 mph NNE3.1 kmh NNE 4.0 mph6.4 kmh 30.40 in1029.5 mb 0.00 in0.0 mm 0.00 in0.0 mm 0.01 in0.3 mm
10:16 PM 43.7°F6.5°C 41.2°F5.1°C 91% 1.9 mph NE3.1 kmh NE 4.0 mph6.4 kmh 30.39 in1029.1 mb 0.00 in0.0 mm 0.00 in0.0 mm 0.01 in0.3 mm
10:21 PM 43.7°F6.5°C 41.2°F5.1°C 91% 1.5 mph NE2.4 kmh NE 5.0 mph8.0 kmh 30.39 in1029.1 mb 0.00 in0.0 mm 0.00 in0.0 mm 0.01 in0.3 mm
10:26 PM 43.7°F6.5°C 41.2°F5.1°C 91% 3.0 mph NE4.8 kmh NE 5.0 mph8.0 kmh 30.39 in1029.1 mb 0.00 in0.0 mm 0.00 in0.0 mm 0.01 in0.3 mm
10:31 PM 43.7°F6.5°C 41.2°F5.1°C 91% 2.2 mph NE3.5 kmh NE 5.0 mph8.0 kmh 30.39 in1029.1 mb 0.00 in0.0 mm 0.00 in0.0 mm 0.01 in0.3 mm
10:36 PM 43.6°F6.4°C 41.1°F5.1°C 91% 2.8 mph NE4.5 kmh NE 7.0 mph11.3 kmh 30.39 in1029.1 mb 0.00 in0.0 mm 0.00 in0.0 mm 0.01 in0.3 mm
10:41 PM 43.6°F6.4°C 41.1°F5.1°C 91% 2.0 mph NE3.2 kmh NE 7.0 mph11.3 kmh 30.40 in1029.5 mb 0.00 in0.0 mm 0.00 in0.0 mm 0.01 in0.3 mm
10:46 PM 43.7°F6.5°C 41.2°F5.1°C 91% 1.0 mph NE1.6 kmh NE 7.0 mph11.3 kmh 30.40 in1029.5 mb 0.00 in0.0 mm 0.00 in0.0 mm 0.01 in0.3 mm
10:51 PM 43.7°F6.5°C 41.2°F5.1°C 91% 1.0 mph NE1.6 kmh NE 7.0 mph11.3 kmh 30.40 in1029.5 mb 0.00 in0.0 mm 0.00 in0.0 mm 0.01 in0.3 mm
10:56 PM 43.7°F6.5°C 41.2°F5.1°C 91% 1.5 mph NE2.4 kmh NE 4.0 mph6.4 kmh 30.39 in1029.1 mb 0.00 in0.0 mm 0.00 in0.0 mm 0.01 in0.3 mm
11:01 PM 43.7°F6.5°C 40.9°F4.9°C 90% 1.3 mph NE2.1 kmh NE 3.0 mph4.8 kmh 30.39 in1029.1 mb 0.00 in0.0 mm 0.00 in0.0 mm 0.01 in0.3 mm
11:06 PM 43.7°F6.5°C 40.9°F4.9°C 90% 1.2 mph NE1.9 kmh NE 3.0 mph4.8 kmh 30.39 in1029.1 mb 0.00 in0.0 mm 0.00 in0.0 mm 0.01 in0.3 mm
11:11 PM 43.8°F6.6°C 41.0°F5.0°C 90% 1.8 mph NNE2.9 kmh NNE 3.0 mph4.8 kmh 30.39 in1029.1 mb 0.00 in0.0 mm 0.00 in0.0 mm 0.01 in0.3 mm
11:16 PM 43.7°F6.5°C 41.0°F5.0°C 90% 1.0 mph NNE1.6 kmh NNE 3.0 mph4.8 kmh 30.40 in1029.5 mb 0.00 in0.0 mm 0.00 in0.0 mm 0.01 in0.3 mm
11:21 PM 43.7°F6.5°C 40.9°F4.9°C 90% Calm Calm 3.0 mph4.8 kmh 30.40 in1029.5 mb 0.00 in0.0 mm 0.00 in0.0 mm 0.01 in0.3 mm
11:26 PM 43.6°F6.4°C 40.8°F4.9°C 90% 1.0 mph N1.6 kmh N 3.0 mph4.8 kmh 30.40 in1029.5 mb 0.00 in0.0 mm 0.00 in0.0 mm 0.01 in0.3 mm
11:31 PM 43.6°F6.4°C 41.1°F5.1°C 91% 1.5 mph NE2.4 kmh NE 3.0 mph4.8 kmh 30.40 in1029.5 mb 0.00 in0.0 mm 0.00 in0.0 mm 0.01 in0.3 mm
11:36 PM 43.6°F6.4°C 41.1°F5.1°C 91% 1.0 mph NE1.6 kmh NE 2.0 mph3.2 kmh 30.40 in1029.5 mb 0.00 in0.0 mm 0.00 in0.0 mm 0.01 in0.3 mm
11:41 PM 43.6°F6.4°C 41.1°F5.1°C 91% 1.0 mph NE1.6 kmh NE 2.0 mph3.2 kmh 30.40 in1029.5 mb 0.00 in0.0 mm 0.00 in0.0 mm 0.01 in0.3 mm
11:46 PM 43.6°F6.4°C 40.9°F4.9°C 90% 1.0 mph NE1.6 kmh NE 2.0 mph3.2 kmh 30.40 in1029.5 mb 0.00 in0.0 mm 0.00 in0.0 mm 0.01 in0.3 mm
11:51 PM 43.7°F6.5°C 40.9°F4.9°C 90% 1.8 mph NE2.9 kmh NE 2.0 mph3.2 kmh 30.40 in1029.5 mb 0.00 in0.0 mm 0.00 in0.0 mm 0.01 in0.3 mm
11:56 PM 43.7°F6.5°C 40.9°F4.9°C 90% 1.5 mph NE2.4 kmh NE 3.0 mph4.8 kmh 30.40 in1029.5 mb 0.00 in0.0 mm 0.00 in0.0 mm 0.01 in0.3 mm